sensor_id;sensor_type;location;lat;lon;timestamp;P1;durP1;ratioP1;P2;durP2;ratioP2
33076;SDS011;38790;51.964;5.924;2022-12-20T00:01:18;9.68;;;3.65;;
33076;SDS011;38790;51.964;5.924;2022-12-20T00:03:48;7.13;;;4.45;;
33076;SDS011;38790;51.964;5.924;2022-12-20T00:06:15;4.97;;;3.83;;
33076;SDS011;38790;51.964;5.924;2022-12-20T00:08:42;9.35;;;4.65;;
33076;SDS011;38790;51.964;5.924;2022-12-20T00:11:08;5.53;;;4.20;;
33076;SDS011;38790;51.964;5.924;2022-12-20T00:13:34;8.30;;;4.53;;
33076;SDS011;38790;51.964;5.924;2022-12-20T00:18:35;6.60;;;3.75;;
33076;SDS011;38790;51.964;5.924;2022-12-20T00:21:03;7.13;;;4.00;;
33076;SDS011;38790;51.964;5.924;2022-12-20T00:23:31;7.47;;;4.18;;
33076;SDS011;38790;51.964;5.924;2022-12-20T00:26:04;6.28;;;3.83;;
33076;SDS011;38790;51.964;5.924;2022-12-20T00:28:35;5.35;;;3.45;;
33076;SDS011;38790;51.964;5.924;2022-12-20T00:31:02;6.38;;;3.63;;
33076;SDS011;38790;51.964;5.924;2022-12-20T00:33:29;4.10;;;3.47;;
33076;SDS011;38790;51.964;5.924;2022-12-20T00:35:56;4.10;;;3.58;;
33076;SDS011;38790;51.964;5.924;2022-12-20T00:38:23;6.55;;;3.70;;
33076;SDS011;38790;51.964;5.924;2022-12-20T00:41:03;6.93;;;3.90;;
33076;SDS011;38790;51.964;5.924;2022-12-20T00:43:37;6.47;;;3.55;;
33076;SDS011;38790;51.964;5.924;2022-12-20T00:46:05;8.10;;;4.15;;
33076;SDS011;38790;51.964;5.924;2022-12-20T00:48:32;5.63;;;3.42;;
33076;SDS011;38790;51.964;5.924;2022-12-20T00:51:04;5.63;;;3.47;;
33076;SDS011;38790;51.964;5.924;2022-12-20T00:53:32;6.97;;;3.55;;
33076;SDS011;38790;51.964;5.924;2022-12-20T00:55:59;8.73;;;3.40;;
33076;SDS011;38790;51.964;5.924;2022-12-20T00:58:25;6.45;;;3.65;;
33076;SDS011;38790;51.964;5.924;2022-12-20T01:00:52;8.05;;;3.95;;
33076;SDS011;38790;51.964;5.924;2022-12-20T01:03:18;10.48;;;3.58;;
33076;SDS011;38790;51.964;5.924;2022-12-20T01:08:21;7.22;;;3.67;;
33076;SDS011;38790;51.964;5.924;2022-12-20T01:10:58;5.60;;;3.35;;
33076;SDS011;38790;51.964;5.924;2022-12-20T01:13:28;7.43;;;3.65;;
33076;SDS011;38790;51.964;5.924;2022-12-20T01:15:55;6.70;;;3.80;;
33076;SDS011;38790;51.964;5.924;2022-12-20T01:18:21;4.72;;;3.03;;
33076;SDS011;38790;51.964;5.924;2022-12-20T01:20:47;6.93;;;3.53;;
33076;SDS011;38790;51.964;5.924;2022-12-20T01:23:14;5.07;;;3.30;;
33076;SDS011;38790;51.964;5.924;2022-12-20T01:25:40;4.95;;;3.20;;
33076;SDS011;38790;51.964;5.924;2022-12-20T01:28:06;8.18;;;3.53;;
33076;SDS011;38790;51.964;5.924;2022-12-20T01:30:32;6.60;;;3.50;;
33076;SDS011;38790;51.964;5.924;2022-12-20T01:32:58;7.22;;;3.50;;
33076;SDS011;38790;51.964;5.924;2022-12-20T01:35:24;6.60;;;3.40;;
33076;SDS011;38790;51.964;5.924;2022-12-20T01:37:50;5.47;;;3.30;;
33076;SDS011;38790;51.964;5.924;2022-12-20T01:40:17;6.45;;;3.65;;
33076;SDS011;38790;51.964;5.924;2022-12-20T01:42:43;13.00;;;3.53;;
33076;SDS011;38790;51.964;5.924;2022-12-20T01:45:12;6.95;;;3.38;;
33076;SDS011;38790;51.964;5.924;2022-12-20T01:47:47;11.43;;;3.85;;
33076;SDS011;38790;51.964;5.924;2022-12-20T01:50:13;4.68;;;3.50;;
33076;SDS011;38790;51.964;5.924;2022-12-20T01:52:40;5.60;;;3.83;;
33076;SDS011;38790;51.964;5.924;2022-12-20T01:55:23;6.40;;;3.55;;
33076;SDS011;38790;51.964;5.924;2022-12-20T01:57:53;13.38;;;3.67;;
33076;SDS011;38790;51.964;5.924;2022-12-20T02:00:29;6.40;;;3.15;;
33076;SDS011;38790;51.964;5.924;2022-12-20T02:02:57;10.90;;;3.78;;
33076;SDS011;38790;51.964;5.924;2022-12-20T02:05:26;5.53;;;4.00;;
33076;SDS011;38790;51.964;5.924;2022-12-20T02:07:53;9.65;;;3.63;;
33076;SDS011;38790;51.964;5.924;2022-12-20T02:10:21;6.78;;;4.00;;
33076;SDS011;38790;51.964;5.924;2022-12-20T02:12:53;8.65;;;4.20;;
33076;SDS011;38790;51.964;5.924;2022-12-20T02:15:39;7.05;;;4.22;;
33076;SDS011;38790;51.964;5.924;2022-12-20T02:18:19;6.75;;;4.20;;
33076;SDS011;38790;51.964;5.924;2022-12-20T02:26:40;7.65;;;4.40;;
33076;SDS011;38790;51.964;5.924;2022-12-20T02:29:34;10.30;;;5.10;;
33076;SDS011;38790;51.964;5.924;2022-12-20T02:32:10;9.77;;;4.25;;
33076;SDS011;38790;51.964;5.924;2022-12-20T02:34:43;9.40;;;4.75;;
33076;SDS011;38790;51.964;5.924;2022-12-20T02:37:10;11.20;;;5.13;;
33076;SDS011;38790;51.964;5.924;2022-12-20T02:39:36;8.77;;;4.88;;
33076;SDS011;38790;51.964;5.924;2022-12-20T02:42:08;9.82;;;5.05;;
33076;SDS011;38790;51.964;5.924;2022-12-20T02:44:40;8.57;;;5.18;;
33076;SDS011;38790;51.964;5.924;2022-12-20T02:47:32;7.45;;;4.93;;
33076;SDS011;38790;51.964;5.924;2022-12-20T02:50:01;7.22;;;4.78;;
33076;SDS011;38790;51.964;5.924;2022-12-20T02:52:29;11.57;;;5.28;;
33076;SDS011;38790;51.964;5.924;2022-12-20T02:54:56;11.48;;;5.35;;
33076;SDS011;38790;51.964;5.924;2022-12-20T03:00:07;9.68;;;5.05;;
33076;SDS011;38790;51.964;5.924;2022-12-20T03:02:37;9.40;;;5.22;;
33076;SDS011;38790;51.964;5.924;2022-12-20T03:05:24;6.20;;;5.25;;
33076;SDS011;38790;51.964;5.924;2022-12-20T03:07:52;16.00;;;5.60;;
33076;SDS011;38790;51.964;5.924;2022-12-20T03:10:18;13.07;;;5.63;;
33076;SDS011;38790;51.964;5.924;2022-12-20T03:12:45;15.30;;;5.88;;
33076;SDS011;38790;51.964;5.924;2022-12-20T03:15:11;13.77;;;5.60;;
33076;SDS011;38790;51.964;5.924;2022-12-20T03:17:38;6.38;;;5.38;;
33076;SDS011;38790;51.964;5.924;2022-12-20T03:20:05;13.65;;;5.53;;
33076;SDS011;38790;51.964;5.924;2022-12-20T03:22:32;9.77;;;5.47;;
33076;SDS011;38790;51.964;5.924;2022-12-20T03:24:59;10.48;;;5.30;;
33076;SDS011;38790;51.964;5.924;2022-12-20T03:27:25;5.70;;;4.75;;
33076;SDS011;38790;51.964;5.924;2022-12-20T03:29:54;8.35;;;4.85;;
33076;SDS011;38790;51.964;5.924;2022-12-20T03:32:20;9.80;;;4.47;;
33076;SDS011;38790;51.964;5.924;2022-12-20T03:34:47;17.25;;;5.20;;
33076;SDS011;38790;51.964;5.924;2022-12-20T03:37:13;8.90;;;5.25;;
33076;SDS011;38790;51.964;5.924;2022-12-20T03:39:39;11.65;;;5.53;;
33076;SDS011;38790;51.964;5.924;2022-12-20T03:42:05;8.32;;;4.65;;
33076;SDS011;38790;51.964;5.924;2022-12-20T03:44:31;7.85;;;4.75;;
33076;SDS011;38790;51.964;5.924;2022-12-20T03:46:58;7.97;;;4.85;;
33076;SDS011;38790;51.964;5.924;2022-12-20T03:49:24;9.30;;;4.95;;
33076;SDS011;38790;51.964;5.924;2022-12-20T03:51:50;7.97;;;4.18;;
33076;SDS011;38790;51.964;5.924;2022-12-20T03:54:16;8.00;;;4.70;;
33076;SDS011;38790;51.964;5.924;2022-12-20T03:56:42;6.60;;;4.07;;
33076;SDS011;38790;51.964;5.924;2022-12-20T03:59:08;7.18;;;4.65;;
33076;SDS011;38790;51.964;5.924;2022-12-20T04:01:34;9.55;;;4.18;;
33076;SDS011;38790;51.964;5.924;2022-12-20T04:04:03;9.60;;;4.97;;
33076;SDS011;38790;51.964;5.924;2022-12-20T04:06:29;5.68;;;4.47;;
33076;SDS011;38790;51.964;5.924;2022-12-20T04:08:56;5.45;;;3.85;;
33076;SDS011;38790;51.964;5.924;2022-12-20T04:11:22;5.50;;;4.28;;
33076;SDS011;38790;51.964;5.924;2022-12-20T04:13:49;12.00;;;4.40;;
33076;SDS011;38790;51.964;5.924;2022-12-20T04:16:18;6.72;;;4.50;;
33076;SDS011;38790;51.964;5.924;2022-12-20T04:18:49;6.43;;;4.20;;
33076;SDS011;38790;51.964;5.924;2022-12-20T04:21:20;4.90;;;3.90;;
33076;SDS011;38790;51.964;5.924;2022-12-20T04:23:47;7.28;;;4.47;;
33076;SDS011;38790;51.964;5.924;2022-12-20T04:26:13;7.32;;;4.40;;
33076;SDS011;38790;51.964;5.924;2022-12-20T04:28:39;5.65;;;3.97;;
33076;SDS011;38790;51.964;5.924;2022-12-20T04:31:05;8.05;;;4.20;;
33076;SDS011;38790;51.964;5.924;2022-12-20T04:33:32;6.57;;;4.78;;
33076;SDS011;38790;51.964;5.924;2022-12-20T04:35:58;5.95;;;3.80;;
33076;SDS011;38790;51.964;5.924;2022-12-20T04:38:25;8.52;;;4.53;;
33076;SDS011;38790;51.964;5.924;2022-12-20T04:40:51;7.00;;;4.50;;
33076;SDS011;38790;51.964;5.924;2022-12-20T04:43:18;5.80;;;4.30;;
33076;SDS011;38790;51.964;5.924;2022-12-20T04:45:48;6.45;;;4.00;;
33076;SDS011;38790;51.964;5.924;2022-12-20T04:48:17;9.05;;;3.92;;
33076;SDS011;38790;51.964;5.924;2022-12-20T04:50:48;6.47;;;4.10;;
33076;SDS011;38790;51.964;5.924;2022-12-20T04:53:15;5.72;;;4.38;;
33076;SDS011;38790;51.964;5.924;2022-12-20T04:56:00;9.48;;;3.75;;
33076;SDS011;38790;51.964;5.924;2022-12-20T04:58:28;9.35;;;4.10;;
33076;SDS011;38790;51.964;5.924;2022-12-20T05:00:54;7.50;;;3.40;;
33076;SDS011;38790;51.964;5.924;2022-12-20T05:03:21;7.97;;;3.95;;
33076;SDS011;38790;51.964;5.924;2022-12-20T05:05:48;6.90;;;4.30;;
33076;SDS011;38790;51.964;5.924;2022-12-20T05:08:15;7.18;;;3.83;;
33076;SDS011;38790;51.964;5.924;2022-12-20T05:10:41;8.75;;;4.38;;
33076;SDS011;38790;51.964;5.924;2022-12-20T05:13:07;9.95;;;3.75;;
33076;SDS011;38790;51.964;5.924;2022-12-20T05:15:34;10.93;;;4.13;;
33076;SDS011;38790;51.964;5.924;2022-12-20T05:18:00;6.78;;;3.65;;
33076;SDS011;38790;51.964;5.924;2022-12-20T05:20:26;9.20;;;3.92;;
33076;SDS011;38790;51.964;5.924;2022-12-20T05:22:56;11.45;;;3.88;;
33076;SDS011;38790;51.964;5.924;2022-12-20T05:25:41;6.55;;;3.97;;
33076;SDS011;38790;51.964;5.924;2022-12-20T05:28:28;5.40;;;3.95;;
33076;SDS011;38790;51.964;5.924;2022-12-20T05:30:55;6.10;;;3.85;;
33076;SDS011;38790;51.964;5.924;2022-12-20T05:33:21;5.50;;;3.45;;
33076;SDS011;38790;51.964;5.924;2022-12-20T05:35:47;10.20;;;3.97;;
33076;SDS011;38790;51.964;5.924;2022-12-20T05:38:13;7.18;;;4.28;;
33076;SDS011;38790;51.964;5.924;2022-12-20T05:40:40;6.80;;;4.28;;
33076;SDS011;38790;51.964;5.924;2022-12-20T05:43:06;7.43;;;3.80;;
33076;SDS011;38790;51.964;5.924;2022-12-20T05:45:32;9.20;;;4.40;;
33076;SDS011;38790;51.964;5.924;2022-12-20T05:48:00;8.82;;;4.38;;
33076;SDS011;38790;51.964;5.924;2022-12-20T05:50:26;10.18;;;4.53;;
33076;SDS011;38790;51.964;5.924;2022-12-20T05:52:53;7.72;;;4.60;;
33076;SDS011;38790;51.964;5.924;2022-12-20T05:55:19;10.30;;;4.75;;
33076;SDS011;38790;51.964;5.924;2022-12-20T05:57:45;7.47;;;4.72;;
33076;SDS011;38790;51.964;5.924;2022-12-20T06:00:11;8.35;;;4.78;;
33076;SDS011;38790;51.964;5.924;2022-12-20T06:02:38;8.05;;;4.93;;
33076;SDS011;38790;51.964;5.924;2022-12-20T06:05:04;6.05;;;4.63;;
33076;SDS011;38790;51.964;5.924;2022-12-20T06:07:30;17.98;;;4.53;;
33076;SDS011;38790;51.964;5.924;2022-12-20T06:09:58;5.20;;;4.43;;
33076;SDS011;38790;51.964;5.924;2022-12-20T06:12:24;7.78;;;4.82;;
33076;SDS011;38790;51.964;5.924;2022-12-20T06:14:50;10.00;;;5.57;;
33076;SDS011;38790;51.964;5.924;2022-12-20T06:17:17;6.38;;;3.83;;
33076;SDS011;38790;51.964;5.924;2022-12-20T06:19:44;4.47;;;3.92;;
33076;SDS011;38790;51.964;5.924;2022-12-20T06:22:10;8.30;;;4.18;;
33076;SDS011;38790;51.964;5.924;2022-12-20T06:24:37;5.75;;;4.00;;
33076;SDS011;38790;51.964;5.924;2022-12-20T06:27:04;14.27;;;5.05;;
33076;SDS011;38790;51.964;5.924;2022-12-20T06:29:31;9.00;;;4.22;;
33076;SDS011;38790;51.964;5.924;2022-12-20T06:31:58;6.28;;;3.85;;
33076;SDS011;38790;51.964;5.924;2022-12-20T06:34:24;9.80;;;4.00;;
33076;SDS011;38790;51.964;5.924;2022-12-20T06:36:50;4.65;;;3.40;;
33076;SDS011;38790;51.964;5.924;2022-12-20T06:39:17;11.25;;;4.13;;
33076;SDS011;38790;51.964;5.924;2022-12-20T06:41:43;8.43;;;3.63;;
33076;SDS011;38790;51.964;5.924;2022-12-20T06:44:09;6.90;;;3.83;;
33076;SDS011;38790;51.964;5.924;2022-12-20T06:46:35;4.82;;;3.65;;
33076;SDS011;38790;51.964;5.924;2022-12-20T06:49:01;12.77;;;3.60;;
33076;SDS011;38790;51.964;5.924;2022-12-20T06:51:27;7.57;;;3.80;;
33076;SDS011;38790;51.964;5.924;2022-12-20T06:53:53;8.10;;;3.45;;
33076;SDS011;38790;51.964;5.924;2022-12-20T06:56:20;9.80;;;3.88;;
33076;SDS011;38790;51.964;5.924;2022-12-20T06:58:46;6.75;;;3.75;;
33076;SDS011;38790;51.964;5.924;2022-12-20T07:01:12;6.70;;;3.20;;
33076;SDS011;38790;51.964;5.924;2022-12-20T07:03:38;4.38;;;3.25;;
33076;SDS011;38790;51.964;5.924;2022-12-20T07:06:04;7.85;;;3.70;;
33076;SDS011;38790;51.964;5.924;2022-12-20T07:08:30;7.90;;;4.10;;
33076;SDS011;38790;51.964;5.924;2022-12-20T07:11:02;8.50;;;3.50;;
33076;SDS011;38790;51.964;5.924;2022-12-20T07:13:31;8.95;;;3.92;;
33076;SDS011;38790;51.964;5.924;2022-12-20T07:15:59;5.35;;;3.28;;
33076;SDS011;38790;51.964;5.924;2022-12-20T07:18:26;6.78;;;3.35;;
33076;SDS011;38790;51.964;5.924;2022-12-20T07:20:52;5.20;;;3.28;;
33076;SDS011;38790;51.964;5.924;2022-12-20T07:23:19;9.77;;;2.90;;
33076;SDS011;38790;51.964;5.924;2022-12-20T07:25:52;6.68;;;3.53;;
33076;SDS011;38790;51.964;5.924;2022-12-20T07:28:19;6.30;;;2.70;;
33076;SDS011;38790;51.964;5.924;2022-12-20T07:30:46;6.85;;;3.13;;
33076;SDS011;38790;51.964;5.924;2022-12-20T07:33:12;8.25;;;3.13;;
33076;SDS011;38790;51.964;5.924;2022-12-20T07:35:38;4.85;;;2.80;;
33076;SDS011;38790;51.964;5.924;2022-12-20T07:38:04;4.20;;;3.40;;
33076;SDS011;38790;51.964;5.924;2022-12-20T07:40:31;9.15;;;3.38;;
33076;SDS011;38790;51.964;5.924;2022-12-20T07:42:57;4.55;;;3.20;;
33076;SDS011;38790;51.964;5.924;2022-12-20T07:45:23;7.00;;;3.30;;
33076;SDS011;38790;51.964;5.924;2022-12-20T07:47:49;4.05;;;3.30;;
33076;SDS011;38790;51.964;5.924;2022-12-20T07:50:15;9.07;;;3.33;;
33076;SDS011;38790;51.964;5.924;2022-12-20T07:52:42;7.75;;;3.38;;
33076;SDS011;38790;51.964;5.924;2022-12-20T07:55:11;6.13;;;3.45;;
33076;SDS011;38790;51.964;5.924;2022-12-20T07:57:49;9.38;;;3.38;;
33076;SDS011;38790;51.964;5.924;2022-12-20T08:00:21;10.10;;;3.40;;
33076;SDS011;38790;51.964;5.924;2022-12-20T08:02:51;6.53;;;2.92;;
33076;SDS011;38790;51.964;5.924;2022-12-20T08:05:24;6.80;;;2.92;;
33076;SDS011;38790;51.964;5.924;2022-12-20T08:07:51;6.03;;;2.80;;
33076;SDS011;38790;51.964;5.924;2022-12-20T08:10:20;4.43;;;3.10;;
33076;SDS011;38790;51.964;5.924;2022-12-20T08:12:47;13.18;;;3.35;;
33076;SDS011;38790;51.964;5.924;2022-12-20T08:15:14;6.63;;;3.72;;
33076;SDS011;38790;51.964;5.924;2022-12-20T08:17:40;6.60;;;3.50;;
33076;SDS011;38790;51.964;5.924;2022-12-20T08:20:06;7.03;;;3.00;;
33076;SDS011;38790;51.964;5.924;2022-12-20T08:22:34;4.10;;;3.25;;
33076;SDS011;38790;51.964;5.924;2022-12-20T08:25:00;6.40;;;3.15;;
33076;SDS011;38790;51.964;5.924;2022-12-20T08:27:26;7.72;;;3.17;;
33076;SDS011;38790;51.964;5.924;2022-12-20T08:29:52;7.13;;;3.10;;
33076;SDS011;38790;51.964;5.924;2022-12-20T08:32:19;5.97;;;3.33;;
33076;SDS011;38790;51.964;5.924;2022-12-20T08:34:45;7.22;;;3.67;;
33076;SDS011;38790;51.964;5.924;2022-12-20T08:37:14;13.82;;;3.40;;
33076;SDS011;38790;51.964;5.924;2022-12-20T08:39:42;8.48;;;3.45;;
33076;SDS011;38790;51.964;5.924;2022-12-20T08:42:08;4.85;;;3.17;;
33076;SDS011;38790;51.964;5.924;2022-12-20T08:44:34;8.98;;;3.05;;
33076;SDS011;38790;51.964;5.924;2022-12-20T08:47:00;10.75;;;3.17;;
33076;SDS011;38790;51.964;5.924;2022-12-20T08:49:26;8.23;;;3.53;;
33076;SDS011;38790;51.964;5.924;2022-12-20T08:51:52;7.65;;;3.28;;
33076;SDS011;38790;51.964;5.924;2022-12-20T08:54:19;7.80;;;3.13;;
33076;SDS011;38790;51.964;5.924;2022-12-20T08:56:45;4.93;;;3.15;;
33076;SDS011;38790;51.964;5.924;2022-12-20T08:59:11;6.00;;;3.03;;
33076;SDS011;38790;51.964;5.924;2022-12-20T09:01:37;5.38;;;2.80;;
33076;SDS011;38790;51.964;5.924;2022-12-20T09:04:03;10.10;;;3.00;;
33076;SDS011;38790;51.964;5.924;2022-12-20T09:06:30;6.32;;;3.33;;
33076;SDS011;38790;51.964;5.924;2022-12-20T09:08:56;4.18;;;3.08;;
33076;SDS011;38790;51.964;5.924;2022-12-20T09:11:25;8.13;;;3.58;;
33076;SDS011;38790;51.964;5.924;2022-12-20T09:13:53;10.02;;;3.58;;
33076;SDS011;38790;51.964;5.924;2022-12-20T09:16:22;6.03;;;3.30;;
33076;SDS011;38790;51.964;5.924;2022-12-20T09:18:51;4.53;;;3.50;;
33076;SDS011;38790;51.964;5.924;2022-12-20T09:21:22;8.15;;;3.92;;
33076;SDS011;38790;51.964;5.924;2022-12-20T09:23:49;8.38;;;4.03;;
33076;SDS011;38790;51.964;5.924;2022-12-20T09:26:16;6.05;;;3.63;;
33076;SDS011;38790;51.964;5.924;2022-12-20T09:28:43;6.43;;;3.45;;
33076;SDS011;38790;51.964;5.924;2022-12-20T09:31:17;7.82;;;4.10;;
33076;SDS011;38790;51.964;5.924;2022-12-20T09:33:45;7.03;;;3.50;;
33076;SDS011;38790;51.964;5.924;2022-12-20T09:36:12;6.82;;;3.65;;
33076;SDS011;38790;51.964;5.924;2022-12-20T09:38:42;7.70;;;3.83;;
33076;SDS011;38790;51.964;5.924;2022-12-20T09:41:15;7.13;;;3.90;;
33076;SDS011;38790;51.964;5.924;2022-12-20T09:43:46;5.97;;;3.90;;
33076;SDS011;38790;51.964;5.924;2022-12-20T09:46:13;6.43;;;3.85;;
33076;SDS011;38790;51.964;5.924;2022-12-20T09:48:40;5.97;;;3.90;;
33076;SDS011;38790;51.964;5.924;2022-12-20T09:53:50;4.82;;;3.40;;
33076;SDS011;38790;51.964;5.924;2022-12-20T09:56:38;9.13;;;3.77;;
33076;SDS011;38790;51.964;5.924;2022-12-20T10:01:47;3.83;;;2.92;;
33076;SDS011;38790;51.964;5.924;2022-12-20T10:04:19;9.65;;;4.57;;
33076;SDS011;38790;51.964;5.924;2022-12-20T10:15:12;11.45;;;3.58;;
33076;SDS011;38790;51.964;5.924;2022-12-20T10:23:55;13.00;;;3.75;;
33076;SDS011;38790;51.964;5.924;2022-12-20T10:25:55;8.75;;;3.97;;
33076;SDS011;38790;51.964;5.924;2022-12-20T10:28:25;10.60;;;4.45;;
33076;SDS011;38790;51.964;5.924;2022-12-20T10:30:57;9.27;;;3.83;;
33076;SDS011;38790;51.964;5.924;2022-12-20T10:33:27;8.18;;;4.68;;
33076;SDS011;38790;51.964;5.924;2022-12-20T10:36:04;8.02;;;4.30;;
33076;SDS011;38790;51.964;5.924;2022-12-20T10:38:46;9.85;;;4.20;;
33076;SDS011;38790;51.964;5.924;2022-12-20T10:41:15;6.20;;;3.45;;
33076;SDS011;38790;51.964;5.924;2022-12-20T10:43:44;10.88;;;4.65;;
33076;SDS011;38790;51.964;5.924;2022-12-20T10:46:13;6.65;;;3.85;;
33076;SDS011;38790;51.964;5.924;2022-12-20T10:48:44;10.73;;;4.97;;
33076;SDS011;38790;51.964;5.924;2022-12-20T10:51:13;10.23;;;4.43;;
33076;SDS011;38790;51.964;5.924;2022-12-20T10:53:58;4.90;;;3.97;;
33076;SDS011;38790;51.964;5.924;2022-12-20T10:56:27;7.38;;;4.53;;
33076;SDS011;38790;51.964;5.924;2022-12-20T10:59:22;9.48;;;4.65;;
33076;SDS011;38790;51.964;5.924;2022-12-20T11:02:19;6.95;;;4.55;;
33076;SDS011;38790;51.964;5.924;2022-12-20T11:07:25;8.38;;;4.60;;
33076;SDS011;38790;51.964;5.924;2022-12-20T11:09:57;12.70;;;5.15;;
33076;SDS011;38790;51.964;5.924;2022-12-20T11:12:26;8.20;;;4.47;;
33076;SDS011;38790;51.964;5.924;2022-12-20T11:15:06;10.40;;;4.13;;
33076;SDS011;38790;51.964;5.924;2022-12-20T11:17:46;12.55;;;4.60;;
33076;SDS011;38790;51.964;5.924;2022-12-20T11:20:24;11.57;;;5.18;;
33076;SDS011;38790;51.964;5.924;2022-12-20T11:25:59;8.03;;;4.53;;
33076;SDS011;38790;51.964;5.924;2022-12-20T11:31:30;15.00;;;4.70;;
33076;SDS011;38790;51.964;5.924;2022-12-20T11:37:23;7.40;;;4.97;;
33076;SDS011;38790;51.964;5.924;2022-12-20T11:48:02;11.30;;;4.13;;
33076;SDS011;38790;51.964;5.924;2022-12-20T11:53:26;10.82;;;4.60;;
33076;SDS011;38790;51.964;5.924;2022-12-20T11:56:06;10.98;;;4.93;;
33076;SDS011;38790;51.964;5.924;2022-12-20T11:59:01;8.10;;;4.70;;
33076;SDS011;38790;51.964;5.924;2022-12-20T12:01:36;9.70;;;4.65;;
33076;SDS011;38790;51.964;5.924;2022-12-20T12:04:08;10.95;;;4.55;;
33076;SDS011;38790;51.964;5.924;2022-12-20T12:06:51;5.88;;;4.53;;
33076;SDS011;38790;51.964;5.924;2022-12-20T12:09:33;9.20;;;4.90;;
33076;SDS011;38790;51.964;5.924;2022-12-20T12:12:18;8.20;;;4.85;;
33076;SDS011;38790;51.964;5.924;2022-12-20T12:14:54;13.52;;;5.05;;
33076;SDS011;38790;51.964;5.924;2022-12-20T12:23:36;12.25;;;4.80;;
33076;SDS011;38790;51.964;5.924;2022-12-20T12:28:58;12.40;;;5.00;;
33076;SDS011;38790;51.964;5.924;2022-12-20T12:34:05;9.18;;;5.07;;
33076;SDS011;38790;51.964;5.924;2022-12-20T12:36:45;11.10;;;5.70;;
33076;SDS011;38790;51.964;5.924;2022-12-20T12:44:53;12.75;;;5.18;;
33076;SDS011;38790;51.964;5.924;2022-12-20T12:47:33;8.65;;;5.47;;
33076;SDS011;38790;51.964;5.924;2022-12-20T12:50:01;11.18;;;5.22;;
33076;SDS011;38790;51.964;5.924;2022-12-20T12:58:12;7.60;;;5.30;;
33076;SDS011;38790;51.964;5.924;2022-12-20T13:11:29;8.38;;;5.25;;
33076;SDS011;38790;51.964;5.924;2022-12-20T13:16:48;12.18;;;5.88;;
33076;SDS011;38790;51.964;5.924;2022-12-20T13:21:58;12.45;;;5.65;;
33076;SDS011;38790;51.964;5.924;2022-12-20T13:27:42;9.90;;;5.38;;
33076;SDS011;38790;51.964;5.924;2022-12-20T13:40:34;10.10;;;6.60;;
33076;SDS011;38790;51.964;5.924;2022-12-20T13:45:45;11.55;;;6.22;;
33076;SDS011;38790;51.964;5.924;2022-12-20T13:48:27;8.82;;;6.35;;
33076;SDS011;38790;51.964;5.924;2022-12-20T13:51:09;7.10;;;6.40;;
33076;SDS011;38790;51.964;5.924;2022-12-20T13:53:35;8.90;;;6.03;;
33076;SDS011;38790;51.964;5.924;2022-12-20T13:56:19;17.42;;;7.05;;
33076;SDS011;38790;51.964;5.924;2022-12-20T13:58:51;11.18;;;6.90;;
33076;SDS011;38790;51.964;5.924;2022-12-20T14:01:19;11.05;;;6.70;;
33076;SDS011;38790;51.964;5.924;2022-12-20T14:03:48;11.10;;;6.68;;
33076;SDS011;38790;51.964;5.924;2022-12-20T14:06:15;11.90;;;7.32;;
33076;SDS011;38790;51.964;5.924;2022-12-20T14:08:46;14.32;;;7.95;;
33076;SDS011;38790;51.964;5.924;2022-12-20T14:11:21;11.68;;;7.38;;
33076;SDS011;38790;51.964;5.924;2022-12-20T14:16:22;15.32;;;7.97;;
33076;SDS011;38790;51.964;5.924;2022-12-20T14:18:59;9.35;;;6.88;;
33076;SDS011;38790;51.964;5.924;2022-12-20T14:21:27;10.00;;;7.05;;
33076;SDS011;38790;51.964;5.924;2022-12-20T14:23:57;10.68;;;7.10;;
33076;SDS011;38790;51.964;5.924;2022-12-20T14:26:29;11.93;;;6.88;;
33076;SDS011;38790;51.964;5.924;2022-12-20T14:28:59;12.57;;;7.50;;
33076;SDS011;38790;51.964;5.924;2022-12-20T14:34:02;10.32;;;7.38;;
33076;SDS011;38790;51.964;5.924;2022-12-20T14:36:29;14.07;;;7.88;;
33076;SDS011;38790;51.964;5.924;2022-12-20T14:38:56;11.13;;;7.50;;
33076;SDS011;38790;51.964;5.924;2022-12-20T14:41:30;18.02;;;7.93;;
33076;SDS011;38790;51.964;5.924;2022-12-20T14:46:35;13.13;;;7.80;;
33076;SDS011;38790;51.964;5.924;2022-12-20T14:51:47;9.73;;;7.70;;
33076;SDS011;38790;51.964;5.924;2022-12-20T14:54:17;10.82;;;7.60;;
33076;SDS011;38790;51.964;5.924;2022-12-20T14:56:46;15.32;;;7.47;;
33076;SDS011;38790;51.964;5.924;2022-12-20T14:59:16;7.53;;;6.82;;
33076;SDS011;38790;51.964;5.924;2022-12-20T15:01:50;10.63;;;7.22;;
33076;SDS011;38790;51.964;5.924;2022-12-20T15:06:57;9.85;;;6.45;;
33076;SDS011;38790;51.964;5.924;2022-12-20T15:09:24;8.55;;;7.15;;
33076;SDS011;38790;51.964;5.924;2022-12-20T15:11:51;12.15;;;7.03;;
33076;SDS011;38790;51.964;5.924;2022-12-20T15:14:20;14.40;;;7.30;;
33076;SDS011;38790;51.964;5.924;2022-12-20T15:16:53;8.70;;;6.68;;
33076;SDS011;38790;51.964;5.924;2022-12-20T15:19:19;13.90;;;7.07;;
33076;SDS011;38790;51.964;5.924;2022-12-20T15:21:46;9.60;;;6.32;;
33076;SDS011;38790;51.964;5.924;2022-12-20T15:24:14;7.97;;;6.30;;
33076;SDS011;38790;51.964;5.924;2022-12-20T15:26:43;10.13;;;7.07;;
33076;SDS011;38790;51.964;5.924;2022-12-20T15:29:19;12.30;;;6.35;;
33076;SDS011;38790;51.964;5.924;2022-12-20T15:31:47;10.85;;;6.60;;
33076;SDS011;38790;51.964;5.924;2022-12-20T15:34:14;7.07;;;6.32;;
33076;SDS011;38790;51.964;5.924;2022-12-20T15:36:53;9.23;;;7.20;;
33076;SDS011;38790;51.964;5.924;2022-12-20T15:39:21;10.10;;;6.55;;
33076;SDS011;38790;51.964;5.924;2022-12-20T15:41:47;9.55;;;7.15;;
33076;SDS011;38790;51.964;5.924;2022-12-20T15:44:21;12.13;;;7.43;;
33076;SDS011;38790;51.964;5.924;2022-12-20T15:46:49;11.95;;;7.05;;
33076;SDS011;38790;51.964;5.924;2022-12-20T15:49:20;8.00;;;7.20;;
33076;SDS011;38790;51.964;5.924;2022-12-20T15:51:48;8.82;;;7.43;;
33076;SDS011;38790;51.964;5.924;2022-12-20T15:56:55;8.98;;;7.88;;
33076;SDS011;38790;51.964;5.924;2022-12-20T15:59:23;13.68;;;7.53;;
33076;SDS011;38790;51.964;5.924;2022-12-20T16:01:49;8.52;;;7.68;;
33076;SDS011;38790;51.964;5.924;2022-12-20T16:04:19;13.63;;;8.48;;
33076;SDS011;38790;51.964;5.924;2022-12-20T16:06:47;12.40;;;8.43;;
33076;SDS011;38790;51.964;5.924;2022-12-20T16:09:14;12.52;;;9.30;;
33076;SDS011;38790;51.964;5.924;2022-12-20T16:11:41;14.75;;;8.82;;
33076;SDS011;38790;51.964;5.924;2022-12-20T16:14:11;11.88;;;9.13;;
33076;SDS011;38790;51.964;5.924;2022-12-20T16:16:43;14.23;;;9.32;;
33076;SDS011;38790;51.964;5.924;2022-12-20T16:19:10;10.90;;;9.68;;
33076;SDS011;38790;51.964;5.924;2022-12-20T16:21:43;12.25;;;9.00;;
33076;SDS011;38790;51.964;5.924;2022-12-20T16:24:15;14.48;;;9.90;;
33076;SDS011;38790;51.964;5.924;2022-12-20T16:26:43;18.10;;;9.93;;
33076;SDS011;38790;51.964;5.924;2022-12-20T16:29:10;14.85;;;11.32;;
33076;SDS011;38790;51.964;5.924;2022-12-20T16:31:37;12.88;;;10.55;;
33076;SDS011;38790;51.964;5.924;2022-12-20T16:34:05;14.85;;;11.55;;
33076;SDS011;38790;51.964;5.924;2022-12-20T16:36:34;17.98;;;11.57;;
33076;SDS011;38790;51.964;5.924;2022-12-20T16:39:00;19.25;;;12.27;;
33076;SDS011;38790;51.964;5.924;2022-12-20T16:41:28;14.85;;;12.27;;
33076;SDS011;38790;51.964;5.924;2022-12-20T16:43:56;13.68;;;11.95;;
33076;SDS011;38790;51.964;5.924;2022-12-20T16:46:24;16.10;;;13.30;;
33076;SDS011;38790;51.964;5.924;2022-12-20T16:48:52;13.77;;;12.38;;
33076;SDS011;38790;51.964;5.924;2022-12-20T16:51:26;14.43;;;12.43;;
33076;SDS011;38790;51.964;5.924;2022-12-20T16:54:04;13.98;;;12.60;;
33076;SDS011;38790;51.964;5.924;2022-12-20T16:56:51;14.65;;;13.13;;
33076;SDS011;38790;51.964;5.924;2022-12-20T16:59:21;15.35;;;12.95;;
33076;SDS011;38790;51.964;5.924;2022-12-20T17:01:48;16.67;;;13.55;;
33076;SDS011;38790;51.964;5.924;2022-12-20T17:04:17;14.85;;;13.25;;